sensor_id;sensor_type;location;lat;lon;timestamp;P1;durP1;ratioP1;P2;durP2;ratioP2
36593;SDS011;22603;47.900;8.146;2023-05-20T00:02:07;8.33;;;3.07;;
36593;SDS011;22603;47.900;8.146;2023-05-20T00:04:54;13.63;;;3.63;;
36593;SDS011;22603;47.900;8.146;2023-05-20T00:07:41;12.20;;;3.27;;
36593;SDS011;22603;47.900;8.146;2023-05-20T00:10:30;6.83;;;2.83;;
36593;SDS011;22603;47.900;8.146;2023-05-20T00:13:17;10.40;;;3.40;;
36593;SDS011;22603;47.900;8.146;2023-05-20T00:16:05;8.83;;;3.53;;
36593;SDS011;22603;47.900;8.146;2023-05-20T00:18:53;11.03;;;4.07;;
36593;SDS011;22603;47.900;8.146;2023-05-20T00:21:40;7.73;;;2.90;;
36593;SDS011;22603;47.900;8.146;2023-05-20T00:24:29;11.40;;;3.50;;
36593;SDS011;22603;47.900;8.146;2023-05-20T00:27:16;6.27;;;2.90;;
36593;SDS011;22603;47.900;8.146;2023-05-20T00:30:03;11.37;;;3.40;;
36593;SDS011;22603;47.900;8.146;2023-05-20T00:32:53;6.63;;;3.10;;
36593;SDS011;22603;47.900;8.146;2023-05-20T00:35:40;10.47;;;3.50;;
36593;SDS011;22603;47.900;8.146;2023-05-20T00:38:27;13.03;;;3.30;;
36593;SDS011;22603;47.900;8.146;2023-05-20T00:41:14;10.00;;;3.50;;
36593;SDS011;22603;47.900;8.146;2023-05-20T00:44:01;7.77;;;3.40;;
36593;SDS011;22603;47.900;8.146;2023-05-20T00:46:47;9.67;;;3.50;;
36593;SDS011;22603;47.900;8.146;2023-05-20T00:49:36;7.83;;;2.73;;
36593;SDS011;22603;47.900;8.146;2023-05-20T00:52:22;11.50;;;3.50;;
36593;SDS011;22603;47.900;8.146;2023-05-20T00:55:10;13.50;;;3.20;;
36593;SDS011;22603;47.900;8.146;2023-05-20T00:57:57;8.87;;;3.67;;
36593;SDS011;22603;47.900;8.146;2023-05-20T01:00:44;7.53;;;3.33;;
36593;SDS011;22603;47.900;8.146;2023-05-20T01:03:32;6.27;;;2.80;;
36593;SDS011;22603;47.900;8.146;2023-05-20T01:06:21;10.60;;;3.57;;
36593;SDS011;22603;47.900;8.146;2023-05-20T01:09:08;8.80;;;3.80;;
36593;SDS011;22603;47.900;8.146;2023-05-20T01:11:55;10.00;;;3.30;;
36593;SDS011;22603;47.900;8.146;2023-05-20T01:14:55;9.03;;;3.53;;
36593;SDS011;22603;47.900;8.146;2023-05-20T01:17:45;9.17;;;3.50;;
36593;SDS011;22603;47.900;8.146;2023-05-20T01:20:34;7.13;;;3.10;;
36593;SDS011;22603;47.900;8.146;2023-05-20T01:23:24;7.77;;;3.40;;
36593;SDS011;22603;47.900;8.146;2023-05-20T01:26:17;11.83;;;3.60;;
36593;SDS011;22603;47.900;8.146;2023-05-20T01:29:06;8.07;;;3.40;;
36593;SDS011;22603;47.900;8.146;2023-05-20T01:31:52;8.13;;;3.60;;
36593;SDS011;22603;47.900;8.146;2023-05-20T01:34:42;12.23;;;3.60;;
36593;SDS011;22603;47.900;8.146;2023-05-20T01:37:32;8.93;;;3.83;;
36593;SDS011;22603;47.900;8.146;2023-05-20T01:40:23;6.90;;;3.03;;
36593;SDS011;22603;47.900;8.146;2023-05-20T01:43:12;7.40;;;3.17;;
36593;SDS011;22603;47.900;8.146;2023-05-20T01:46:04;13.37;;;3.90;;
36593;SDS011;22603;47.900;8.146;2023-05-20T01:48:51;8.13;;;3.17;;
36593;SDS011;22603;47.900;8.146;2023-05-20T01:51:38;10.67;;;3.63;;
36593;SDS011;22603;47.900;8.146;2023-05-20T01:54:25;12.43;;;3.70;;
36593;SDS011;22603;47.900;8.146;2023-05-20T01:57:13;8.93;;;3.27;;
36593;SDS011;22603;47.900;8.146;2023-05-20T02:00:00;8.03;;;2.80;;
36593;SDS011;22603;47.900;8.146;2023-05-20T02:02:47;7.70;;;3.30;;
36593;SDS011;22603;47.900;8.146;2023-05-20T02:05:34;12.80;;;4.27;;
36593;SDS011;22603;47.900;8.146;2023-05-20T02:08:22;10.73;;;3.60;;
36593;SDS011;22603;47.900;8.146;2023-05-20T02:11:09;8.80;;;3.07;;
36593;SDS011;22603;47.900;8.146;2023-05-20T02:13:57;8.03;;;2.80;;
36593;SDS011;22603;47.900;8.146;2023-05-20T02:16:45;5.97;;;2.77;;
36593;SDS011;22603;47.900;8.146;2023-05-20T02:19:32;10.47;;;3.23;;
36593;SDS011;22603;47.900;8.146;2023-05-20T02:22:19;9.30;;;3.27;;
36593;SDS011;22603;47.900;8.146;2023-05-20T02:25:06;10.73;;;3.00;;
36593;SDS011;22603;47.900;8.146;2023-05-20T02:27:53;9.20;;;4.10;;
36593;SDS011;22603;47.900;8.146;2023-05-20T02:30:41;9.30;;;3.40;;
36593;SDS011;22603;47.900;8.146;2023-05-20T02:33:28;7.20;;;2.90;;
36593;SDS011;22603;47.900;8.146;2023-05-20T02:36:15;10.90;;;2.83;;
36593;SDS011;22603;47.900;8.146;2023-05-20T02:39:02;7.73;;;3.07;;
36593;SDS011;22603;47.900;8.146;2023-05-20T02:41:49;7.20;;;3.10;;
36593;SDS011;22603;47.900;8.146;2023-05-20T02:44:36;8.07;;;3.00;;
36593;SDS011;22603;47.900;8.146;2023-05-20T02:47:25;11.17;;;3.07;;
36593;SDS011;22603;47.900;8.146;2023-05-20T02:50:12;8.77;;;3.13;;
36593;SDS011;22603;47.900;8.146;2023-05-20T02:52:59;7.40;;;3.23;;
36593;SDS011;22603;47.900;8.146;2023-05-20T02:55:46;6.23;;;2.53;;
36593;SDS011;22603;47.900;8.146;2023-05-20T02:58:33;7.70;;;3.07;;
36593;SDS011;22603;47.900;8.146;2023-05-20T03:01:20;10.80;;;3.03;;
36593;SDS011;22603;47.900;8.146;2023-05-20T03:04:09;9.43;;;2.80;;
36593;SDS011;22603;47.900;8.146;2023-05-20T03:06:56;7.30;;;3.17;;
36593;SDS011;22603;47.900;8.146;2023-05-20T03:09:46;7.20;;;3.03;;
36593;SDS011;22603;47.900;8.146;2023-05-20T03:12:33;9.07;;;3.17;;
36593;SDS011;22603;47.900;8.146;2023-05-20T03:15:20;7.77;;;3.13;;
36593;SDS011;22603;47.900;8.146;2023-05-20T03:18:07;7.50;;;3.10;;
36593;SDS011;22603;47.900;8.146;2023-05-20T03:20:56;8.07;;;3.33;;
36593;SDS011;22603;47.900;8.146;2023-05-20T03:23:44;7.63;;;3.00;;
36593;SDS011;22603;47.900;8.146;2023-05-20T03:26:32;7.93;;;3.10;;
36593;SDS011;22603;47.900;8.146;2023-05-20T03:29:21;7.63;;;3.03;;
36593;SDS011;22603;47.900;8.146;2023-05-20T03:32:08;6.67;;;3.10;;
36593;SDS011;22603;47.900;8.146;2023-05-20T03:34:55;10.17;;;3.03;;
36593;SDS011;22603;47.900;8.146;2023-05-20T03:37:45;8.33;;;3.30;;
36593;SDS011;22603;47.900;8.146;2023-05-20T03:40:32;7.57;;;3.57;;
36593;SDS011;22603;47.900;8.146;2023-05-20T03:43:19;9.27;;;3.77;;
36593;SDS011;22603;47.900;8.146;2023-05-20T03:46:06;13.10;;;3.53;;
36593;SDS011;22603;47.900;8.146;2023-05-20T03:48:53;9.77;;;3.77;;
36593;SDS011;22603;47.900;8.146;2023-05-20T03:51:40;7.57;;;2.93;;
36593;SDS011;22603;47.900;8.146;2023-05-20T03:54:28;11.77;;;4.03;;
36593;SDS011;22603;47.900;8.146;2023-05-20T03:57:15;8.20;;;3.43;;
36593;SDS011;22603;47.900;8.146;2023-05-20T04:00:05;10.37;;;4.00;;
36593;SDS011;22603;47.900;8.146;2023-05-20T04:02:56;10.73;;;3.43;;
36593;SDS011;22603;47.900;8.146;2023-05-20T04:05:46;11.30;;;4.20;;
36593;SDS011;22603;47.900;8.146;2023-05-20T04:08:33;10.90;;;3.70;;
36593;SDS011;22603;47.900;8.146;2023-05-20T04:11:22;9.50;;;3.60;;
36593;SDS011;22603;47.900;8.146;2023-05-20T04:14:09;14.60;;;4.50;;
36593;SDS011;22603;47.900;8.146;2023-05-20T04:16:56;12.57;;;5.23;;
36593;SDS011;22603;47.900;8.146;2023-05-20T04:19:44;10.13;;;4.63;;
36593;SDS011;22603;47.900;8.146;2023-05-20T04:22:31;14.10;;;4.67;;
36593;SDS011;22603;47.900;8.146;2023-05-20T04:25:18;10.77;;;4.03;;
36593;SDS011;22603;47.900;8.146;2023-05-20T04:28:07;14.27;;;4.73;;
36593;SDS011;22603;47.900;8.146;2023-05-20T04:30:57;11.00;;;4.83;;
36593;SDS011;22603;47.900;8.146;2023-05-20T04:33:44;8.63;;;4.07;;
36593;SDS011;22603;47.900;8.146;2023-05-20T04:36:31;11.10;;;5.00;;
36593;SDS011;22603;47.900;8.146;2023-05-20T04:39:18;12.57;;;5.20;;
36593;SDS011;22603;47.900;8.146;2023-05-20T04:42:05;11.10;;;5.13;;
36593;SDS011;22603;47.900;8.146;2023-05-20T04:44:53;12.63;;;5.47;;
36593;SDS011;22603;47.900;8.146;2023-05-20T04:47:42;13.97;;;5.47;;
36593;SDS011;22603;47.900;8.146;2023-05-20T04:50:29;14.03;;;5.70;;
36593;SDS011;22603;47.900;8.146;2023-05-20T04:53:17;12.47;;;5.17;;
36593;SDS011;22603;47.900;8.146;2023-05-20T04:56:05;12.13;;;4.73;;
36593;SDS011;22603;47.900;8.146;2023-05-20T04:58:53;12.57;;;5.20;;
36593;SDS011;22603;47.900;8.146;2023-05-20T05:01:41;15.07;;;5.60;;
36593;SDS011;22603;47.900;8.146;2023-05-20T05:04:29;12.57;;;5.10;;
36593;SDS011;22603;47.900;8.146;2023-05-20T05:07:16;16.57;;;5.80;;
36593;SDS011;22603;47.900;8.146;2023-05-20T05:10:03;13.40;;;5.53;;
36593;SDS011;22603;47.900;8.146;2023-05-20T05:12:51;14.90;;;5.90;;
36593;SDS011;22603;47.900;8.146;2023-05-20T05:15:38;14.30;;;6.70;;
36593;SDS011;22603;47.900;8.146;2023-05-20T05:18:26;13.40;;;5.67;;
36593;SDS011;22603;47.900;8.146;2023-05-20T05:21:13;14.47;;;6.37;;
36593;SDS011;22603;47.900;8.146;2023-05-20T05:24:00;14.93;;;5.93;;
36593;SDS011;22603;47.900;8.146;2023-05-20T05:26:48;17.53;;;7.20;;
36593;SDS011;22603;47.900;8.146;2023-05-20T05:29:39;17.00;;;6.40;;
36593;SDS011;22603;47.900;8.146;2023-05-20T05:32:26;13.73;;;6.23;;
36593;SDS011;22603;47.900;8.146;2023-05-20T05:35:14;13.20;;;5.83;;
36593;SDS011;22603;47.900;8.146;2023-05-20T05:38:01;16.87;;;7.00;;
36593;SDS011;22603;47.900;8.146;2023-05-20T05:40:48;14.10;;;6.60;;
36593;SDS011;22603;47.900;8.146;2023-05-20T05:43:36;15.13;;;6.27;;
36593;SDS011;22603;47.900;8.146;2023-05-20T05:46:23;17.23;;;7.30;;
36593;SDS011;22603;47.900;8.146;2023-05-20T05:49:10;17.37;;;6.90;;
36593;SDS011;22603;47.900;8.146;2023-05-20T05:51:58;17.23;;;7.00;;
36593;SDS011;22603;47.900;8.146;2023-05-20T05:54:45;15.40;;;6.57;;
36593;SDS011;22603;47.900;8.146;2023-05-20T05:57:32;18.13;;;6.37;;
36593;SDS011;22603;47.900;8.146;2023-05-20T06:00:19;14.83;;;7.07;;
36593;SDS011;22603;47.900;8.146;2023-05-20T06:03:06;19.70;;;7.13;;
36593;SDS011;22603;47.900;8.146;2023-05-20T06:05:55;17.47;;;6.47;;
36593;SDS011;22603;47.900;8.146;2023-05-20T06:08:44;18.03;;;6.63;;
36593;SDS011;22603;47.900;8.146;2023-05-20T06:11:31;15.57;;;6.47;;
36593;SDS011;22603;47.900;8.146;2023-05-20T06:14:18;16.87;;;7.00;;
36593;SDS011;22603;47.900;8.146;2023-05-20T06:17:05;19.43;;;6.53;;
36593;SDS011;22603;47.900;8.146;2023-05-20T06:19:52;16.13;;;6.93;;
36593;SDS011;22603;47.900;8.146;2023-05-20T06:22:39;20.63;;;6.40;;
36593;SDS011;22603;47.900;8.146;2023-05-20T06:25:28;21.03;;;6.60;;
36593;SDS011;22603;47.900;8.146;2023-05-20T06:28:15;15.03;;;5.83;;
36593;SDS011;22603;47.900;8.146;2023-05-20T06:31:05;23.93;;;7.07;;
36593;SDS011;22603;47.900;8.146;2023-05-20T06:33:53;16.00;;;6.00;;
36593;SDS011;22603;47.900;8.146;2023-05-20T06:36:40;13.23;;;5.63;;
36593;SDS011;22603;47.900;8.146;2023-05-20T06:39:27;14.43;;;5.67;;
36593;SDS011;22603;47.900;8.146;2023-05-20T06:42:15;13.30;;;5.80;;
36593;SDS011;22603;47.900;8.146;2023-05-20T06:45:03;12.60;;;5.73;;
36593;SDS011;22603;47.900;8.146;2023-05-20T06:47:51;11.17;;;5.00;;
36593;SDS011;22603;47.900;8.146;2023-05-20T06:50:39;14.23;;;5.63;;
36593;SDS011;22603;47.900;8.146;2023-05-20T06:53:26;16.47;;;5.20;;
36593;SDS011;22603;47.900;8.146;2023-05-20T06:56:14;12.63;;;5.60;;
36593;SDS011;22603;47.900;8.146;2023-05-20T06:59:02;14.17;;;5.53;;
36593;SDS011;22603;47.900;8.146;2023-05-20T07:01:49;12.83;;;5.43;;
36593;SDS011;22603;47.900;8.146;2023-05-20T07:04:36;12.60;;;5.27;;
36593;SDS011;22603;47.900;8.146;2023-05-20T07:07:24;12.07;;;5.90;;
36593;SDS011;22603;47.900;8.146;2023-05-20T07:10:11;14.30;;;4.90;;
36593;SDS011;22603;47.900;8.146;2023-05-20T07:12:58;11.47;;;5.37;;
36593;SDS011;22603;47.900;8.146;2023-05-20T07:15:47;11.60;;;5.73;;
36593;SDS011;22603;47.900;8.146;2023-05-20T07:18:34;16.90;;;5.57;;
36593;SDS011;22603;47.900;8.146;2023-05-20T07:21:21;12.23;;;5.10;;
36593;SDS011;22603;47.900;8.146;2023-05-20T07:24:11;11.97;;;5.13;;
36593;SDS011;22603;47.900;8.146;2023-05-20T07:26:59;13.67;;;5.70;;
36593;SDS011;22603;47.900;8.146;2023-05-20T07:29:46;12.70;;;4.77;;
36593;SDS011;22603;47.900;8.146;2023-05-20T07:32:34;10.50;;;4.70;;
36593;SDS011;22603;47.900;8.146;2023-05-20T07:35:21;13.13;;;5.50;;
36593;SDS011;22603;47.900;8.146;2023-05-20T07:38:09;11.83;;;4.70;;
36593;SDS011;22603;47.900;8.146;2023-05-20T07:40:57;11.07;;;4.90;;
36593;SDS011;22603;47.900;8.146;2023-05-20T07:43:45;10.23;;;4.93;;
36593;SDS011;22603;47.900;8.146;2023-05-20T07:46:34;10.57;;;4.97;;
36593;SDS011;22603;47.900;8.146;2023-05-20T07:49:23;12.63;;;5.43;;
36593;SDS011;22603;47.900;8.146;2023-05-20T07:52:13;12.17;;;5.20;;
36593;SDS011;22603;47.900;8.146;2023-05-20T07:55:01;15.23;;;5.60;;
36593;SDS011;22603;47.900;8.146;2023-05-20T07:57:52;11.50;;;5.63;;
36593;SDS011;22603;47.900;8.146;2023-05-20T08:00:39;14.10;;;5.63;;
36593;SDS011;22603;47.900;8.146;2023-05-20T08:03:26;12.37;;;5.77;;
36593;SDS011;22603;47.900;8.146;2023-05-20T08:06:17;14.07;;;5.53;;
36593;SDS011;22603;47.900;8.146;2023-05-20T08:09:05;11.90;;;5.00;;
36593;SDS011;22603;47.900;8.146;2023-05-20T08:11:53;14.37;;;5.57;;
36593;SDS011;22603;47.900;8.146;2023-05-20T08:14:39;11.93;;;5.10;;
36593;SDS011;22603;47.900;8.146;2023-05-20T08:17:28;15.90;;;5.17;;
36593;SDS011;22603;47.900;8.146;2023-05-20T08:20:15;10.13;;;4.90;;
36593;SDS011;22603;47.900;8.146;2023-05-20T08:23:03;12.63;;;5.03;;
36593;SDS011;22603;47.900;8.146;2023-05-20T08:25:50;13.80;;;5.73;;
36593;SDS011;22603;47.900;8.146;2023-05-20T08:28:38;12.83;;;5.40;;
36593;SDS011;22603;47.900;8.146;2023-05-20T08:31:25;15.13;;;6.03;;
36593;SDS011;22603;47.900;8.146;2023-05-20T08:34:12;14.40;;;5.73;;
36593;SDS011;22603;47.900;8.146;2023-05-20T08:37:00;15.70;;;6.17;;
36593;SDS011;22603;47.900;8.146;2023-05-20T08:39:48;14.83;;;6.00;;
36593;SDS011;22603;47.900;8.146;2023-05-20T08:42:35;11.37;;;4.93;;
36593;SDS011;22603;47.900;8.146;2023-05-20T08:45:26;11.00;;;5.33;;
36593;SDS011;22603;47.900;8.146;2023-05-20T08:48:17;12.73;;;5.30;;
36593;SDS011;22603;47.900;8.146;2023-05-20T08:51:04;14.63;;;5.67;;
36593;SDS011;22603;47.900;8.146;2023-05-20T08:53:56;13.80;;;5.53;;
36593;SDS011;22603;47.900;8.146;2023-05-20T08:56:47;16.03;;;6.00;;
36593;SDS011;22603;47.900;8.146;2023-05-20T08:59:34;15.87;;;5.60;;
36593;SDS011;22603;47.900;8.146;2023-05-20T09:02:21;14.97;;;5.60;;
36593;SDS011;22603;47.900;8.146;2023-05-20T09:05:09;15.23;;;5.87;;
36593;SDS011;22603;47.900;8.146;2023-05-20T09:08:03;14.87;;;6.10;;
36593;SDS011;22603;47.900;8.146;2023-05-20T09:10:52;13.13;;;5.97;;
36593;SDS011;22603;47.900;8.146;2023-05-20T09:13:41;13.70;;;6.20;;
36593;SDS011;22603;47.900;8.146;2023-05-20T09:16:28;13.07;;;5.27;;
36593;SDS011;22603;47.900;8.146;2023-05-20T09:19:15;14.80;;;5.90;;
36593;SDS011;22603;47.900;8.146;2023-05-20T09:22:03;13.07;;;6.30;;
36593;SDS011;22603;47.900;8.146;2023-05-20T09:24:50;13.57;;;6.43;;
36593;SDS011;22603;47.900;8.146;2023-05-20T09:27:38;12.77;;;5.97;;
36593;SDS011;22603;47.900;8.146;2023-05-20T09:30:27;11.23;;;5.13;;
36593;SDS011;22603;47.900;8.146;2023-05-20T09:33:14;11.60;;;5.80;;
36593;SDS011;22603;47.900;8.146;2023-05-20T09:36:04;13.93;;;6.17;;
36593;SDS011;22603;47.900;8.146;2023-05-20T09:38:55;10.15;;;4.95;;
36593;SDS011;22603;47.900;8.146;2023-05-20T09:41:48;12.70;;;5.40;;
36593;SDS011;22603;47.900;8.146;2023-05-20T09:44:40;15.98;;;5.85;;
36593;SDS011;22603;47.900;8.146;2023-05-20T09:47:30;14.60;;;5.63;;
36593;SDS011;22603;47.900;8.146;2023-05-20T09:50:18;12.25;;;5.40;;
36593;SDS011;22603;47.900;8.146;2023-05-20T09:53:06;11.80;;;5.45;;
36593;SDS011;22603;47.900;8.146;2023-05-20T09:55:56;11.85;;;4.78;;
36593;SDS011;22603;47.900;8.146;2023-05-20T09:58:44;11.90;;;5.38;;
36593;SDS011;22603;47.900;8.146;2023-05-20T10:01:32;11.07;;;5.07;;
36593;SDS011;22603;47.900;8.146;2023-05-20T10:04:21;10.30;;;4.68;;
36593;SDS011;22603;47.900;8.146;2023-05-20T10:07:19;13.20;;;5.40;;
36593;SDS011;22603;47.900;8.146;2023-05-20T10:10:36;11.57;;;5.20;;
36593;SDS011;22603;47.900;8.146;2023-05-20T10:13:37;11.10;;;4.57;;
36593;SDS011;22603;47.900;8.146;2023-05-20T10:16:41;11.18;;;4.97;;
36593;SDS011;22603;47.900;8.146;2023-05-20T10:19:37;10.38;;;4.53;;
36593;SDS011;22603;47.900;8.146;2023-05-20T10:22:27;16.13;;;5.25;;
36593;SDS011;22603;47.900;8.146;2023-05-20T10:25:22;12.90;;;4.88;;
36593;SDS011;22603;47.900;8.146;2023-05-20T10:28:10;11.18;;;5.30;;
36593;SDS011;22603;47.900;8.146;2023-05-20T10:30:58;9.43;;;4.22;;
36593;SDS011;22603;47.900;8.146;2023-05-20T10:33:45;10.07;;;4.10;;
36593;SDS011;22603;47.900;8.146;2023-05-20T10:36:34;10.80;;;4.72;;
36593;SDS011;22603;47.900;8.146;2023-05-20T10:39:24;9.45;;;4.40;;
36593;SDS011;22603;47.900;8.146;2023-05-20T10:42:16;12.27;;;4.60;;
36593;SDS011;22603;47.900;8.146;2023-05-20T10:45:25;9.77;;;4.50;;
36593;SDS011;22603;47.900;8.146;2023-05-20T10:48:18;11.15;;;4.57;;
36593;SDS011;22603;47.900;8.146;2023-05-20T10:51:13;10.25;;;4.45;;
36593;SDS011;22603;47.900;8.146;2023-05-20T10:54:03;9.73;;;4.80;;
36593;SDS011;22603;47.900;8.146;2023-05-20T10:56:51;10.27;;;4.25;;
36593;SDS011;22603;47.900;8.146;2023-05-20T10:59:39;9.93;;;4.25;;
36593;SDS011;22603;47.900;8.146;2023-05-20T11:02:26;9.95;;;3.83;;
36593;SDS011;22603;47.900;8.146;2023-05-20T11:05:13;8.48;;;3.92;;
36593;SDS011;22603;47.900;8.146;2023-05-20T11:08:03;8.07;;;4.00;;
36593;SDS011;22603;47.900;8.146;2023-05-20T11:11:06;7.55;;;3.70;;
36593;SDS011;22603;47.900;8.146;2023-05-20T11:13:55;7.82;;;3.55;;
36593;SDS011;22603;47.900;8.146;2023-05-20T11:16:44;9.98;;;4.18;;
36593;SDS011;22603;47.900;8.146;2023-05-20T11:19:33;9.00;;;3.92;;
36593;SDS011;22603;47.900;8.146;2023-05-20T11:22:22;8.02;;;3.92;;
36593;SDS011;22603;47.900;8.146;2023-05-20T11:25:10;9.50;;;3.95;;
36593;SDS011;22603;47.900;8.146;2023-05-20T11:27:59;8.85;;;3.85;;
36593;SDS011;22603;47.900;8.146;2023-05-20T11:30:48;7.65;;;3.63;;
36593;SDS011;22603;47.900;8.146;2023-05-20T11:33:39;8.90;;;3.92;;
36593;SDS011;22603;47.900;8.146;2023-05-20T11:36:27;8.10;;;3.80;;
36593;SDS011;22603;47.900;8.146;2023-05-20T11:39:14;9.23;;;4.00;;
36593;SDS011;22603;47.900;8.146;2023-05-20T11:42:01;7.25;;;3.72;;
36593;SDS011;22603;47.900;8.146;2023-05-20T11:44:51;8.25;;;3.83;;
36593;SDS011;22603;47.900;8.146;2023-05-20T11:47:38;7.72;;;3.40;;
36593;SDS011;22603;47.900;8.146;2023-05-20T11:50:25;8.63;;;3.92;;
36593;SDS011;22603;47.900;8.146;2023-05-20T11:53:13;8.93;;;3.72;;
36593;SDS011;22603;47.900;8.146;2023-05-20T11:56:01;10.18;;;4.05;;
36593;SDS011;22603;47.900;8.146;2023-05-20T11:58:49;9.48;;;4.25;;
36593;SDS011;22603;47.900;8.146;2023-05-20T12:01:37;11.48;;;4.00;;
36593;SDS011;22603;47.900;8.146;2023-05-20T12:04:26;8.00;;;3.92;;
36593;SDS011;22603;47.900;8.146;2023-05-20T12:07:13;8.43;;;3.83;;
36593;SDS011;22603;47.900;8.146;2023-05-20T12:10:00;7.10;;;3.38;;
36593;SDS011;22603;47.900;8.146;2023-05-20T12:12:47;8.70;;;3.60;;
36593;SDS011;22603;47.900;8.146;2023-05-20T12:15:34;9.10;;;3.35;;
36593;SDS011;22603;47.900;8.146;2023-05-20T12:18:23;7.60;;;3.47;;
36593;SDS011;22603;47.900;8.146;2023-05-20T12:21:10;9.63;;;3.70;;
36593;SDS011;22603;47.900;8.146;2023-05-20T12:24:00;8.40;;;3.53;;
36593;SDS011;22603;47.900;8.146;2023-05-20T12:26:49;7.43;;;3.45;;
36593;SDS011;22603;47.900;8.146;2023-05-20T12:29:36;7.50;;;3.35;;
36593;SDS011;22603;47.900;8.146;2023-05-20T12:32:23;8.10;;;3.42;;
36593;SDS011;22603;47.900;8.146;2023-05-20T12:35:12;8.95;;;3.33;;
36593;SDS011;22603;47.900;8.146;2023-05-20T12:37:59;6.95;;;3.50;;
36593;SDS011;22603;47.900;8.146;2023-05-20T12:40:46;9.55;;;4.03;;
36593;SDS011;22603;47.900;8.146;2023-05-20T12:43:34;7.72;;;3.40;;
36593;SDS011;22603;47.900;8.146;2023-05-20T12:46:21;8.90;;;3.88;;
36593;SDS011;22603;47.900;8.146;2023-05-20T12:49:08;8.10;;;3.38;;
36593;SDS011;22603;47.900;8.146;2023-05-20T12:51:57;8.82;;;3.70;;
36593;SDS011;22603;47.900;8.146;2023-05-20T12:54:49;7.45;;;3.88;;
36593;SDS011;22603;47.900;8.146;2023-05-20T12:57:37;16.95;;;3.92;;
36593;SDS011;22603;47.900;8.146;2023-05-20T13:00:25;7.28;;;3.15;;
36593;SDS011;22603;47.900;8.146;2023-05-20T13:03:13;8.00;;;3.42;;
36593;SDS011;22603;47.900;8.146;2023-05-20T13:06:00;8.40;;;3.63;;
36593;SDS011;22603;47.900;8.146;2023-05-20T13:08:49;7.45;;;3.53;;
36593;SDS011;22603;47.900;8.146;2023-05-20T13:11:36;6.80;;;3.08;;
36593;SDS011;22603;47.900;8.146;2023-05-20T13:14:23;9.43;;;3.58;;
36593;SDS011;22603;47.900;8.146;2023-05-20T13:17:10;7.57;;;3.58;;
36593;SDS011;22603;47.900;8.146;2023-05-20T13:19:57;8.10;;;3.70;;
36593;SDS011;22603;47.900;8.146;2023-05-20T13:22:44;9.85;;;4.20;;
36593;SDS011;22603;47.900;8.146;2023-05-20T13:25:33;8.93;;;3.95;;
36593;SDS011;22603;47.900;8.146;2023-05-20T13:28:20;7.88;;;3.58;;
36593;SDS011;22603;47.900;8.146;2023-05-20T13:31:07;8.73;;;4.10;;
36593;SDS011;22603;47.900;8.146;2023-05-20T13:33:53;7.35;;;3.85;;
36593;SDS011;22603;47.900;8.146;2023-05-20T13:36:43;11.05;;;4.68;;
36593;SDS011;22603;47.900;8.146;2023-05-20T13:39:34;10.40;;;3.40;;
36593;SDS011;22603;47.900;8.146;2023-05-20T13:42:23;9.45;;;4.10;;
36593;SDS011;22603;47.900;8.146;2023-05-20T13:45:10;8.30;;;3.90;;
36593;SDS011;22603;47.900;8.146;2023-05-20T13:47:57;9.10;;;4.40;;
36593;SDS011;22603;47.900;8.146;2023-05-20T13:50:44;9.65;;;4.05;;
36593;SDS011;22603;47.900;8.146;2023-05-20T13:53:32;9.88;;;4.25;;
36593;SDS011;22603;47.900;8.146;2023-05-20T13:56:19;9.05;;;3.92;;
36593;SDS011;22603;47.900;8.146;2023-05-20T13:59:07;8.18;;;3.85;;
36593;SDS011;22603;47.900;8.146;2023-05-20T14:01:54;9.75;;;3.80;;
36593;SDS011;22603;47.900;8.146;2023-05-20T14:04:42;10.23;;;3.90;;
36593;SDS011;22603;47.900;8.146;2023-05-20T14:07:31;7.97;;;4.10;;
36593;SDS011;22603;47.900;8.146;2023-05-20T14:10:18;8.98;;;4.22;;
36593;SDS011;22603;47.900;8.146;2023-05-20T14:13:05;11.30;;;4.03;;
36593;SDS011;22603;47.900;8.146;2023-05-20T14:15:54;8.88;;;4.20;;
36593;SDS011;22603;47.900;8.146;2023-05-20T14:18:41;9.45;;;4.43;;
36593;SDS011;22603;47.900;8.146;2023-05-20T14:21:28;9.52;;;4.25;;
36593;SDS011;22603;47.900;8.146;2023-05-20T14:24:15;11.95;;;4.70;;
36593;SDS011;22603;47.900;8.146;2023-05-20T14:27:04;7.55;;;3.70;;
36593;SDS011;22603;47.900;8.146;2023-05-20T14:29:51;8.30;;;4.07;;
36593;SDS011;22603;47.900;8.146;2023-05-20T14:32:41;7.78;;;3.97;;
36593;SDS011;22603;47.900;8.146;2023-05-20T14:35:28;7.85;;;3.90;;
36593;SDS011;22603;47.900;8.146;2023-05-20T14:38:15;8.70;;;3.95;;
36593;SDS011;22603;47.900;8.146;2023-05-20T14:41:02;7.80;;;3.90;;
36593;SDS011;22603;47.900;8.146;2023-05-20T14:43:49;8.25;;;4.00;;
36593;SDS011;22603;47.900;8.146;2023-05-20T14:46:36;10.25;;;4.05;;
36593;SDS011;22603;47.900;8.146;2023-05-20T14:49:25;9.98;;;4.65;;
36593;SDS011;22603;47.900;8.146;2023-05-20T14:52:12;8.80;;;3.83;;
36593;SDS011;22603;47.900;8.146;2023-05-20T14:54:58;8.98;;;4.00;;
36593;SDS011;22603;47.900;8.146;2023-05-20T14:57:45;9.20;;;3.95;;
36593;SDS011;22603;47.900;8.146;2023-05-20T15:00:32;8.70;;;3.95;;
36593;SDS011;22603;47.900;8.146;2023-05-20T15:03:20;8.95;;;4.00;;
36593;SDS011;22603;47.900;8.146;2023-05-20T15:06:09;8.10;;;3.72;;
36593;SDS011;22603;47.900;8.146;2023-05-20T15:08:57;9.57;;;4.10;;
36593;SDS011;22603;47.900;8.146;2023-05-20T15:11:43;10.43;;;4.38;;
36593;SDS011;22603;47.900;8.146;2023-05-20T15:14:31;9.02;;;3.95;;
36593;SDS011;22603;47.900;8.146;2023-05-20T15:17:18;10.00;;;3.83;;
36593;SDS011;22603;47.900;8.146;2023-05-20T15:20:05;8.30;;;3.95;;
36593;SDS011;22603;47.900;8.146;2023-05-20T15:22:55;9.43;;;4.40;;
36593;SDS011;22603;47.900;8.146;2023-05-20T15:25:44;9.52;;;3.97;;
36593;SDS011;22603;47.900;8.146;2023-05-20T15:28:32;8.48;;;3.60;;
36593;SDS011;22603;47.900;8.146;2023-05-20T15:31:19;8.02;;;3.95;;
36593;SDS011;22603;47.900;8.146;2023-05-20T15:34:06;8.75;;;4.50;;
36593;SDS011;22603;47.900;8.146;2023-05-20T15:36:53;8.52;;;3.80;;
36593;SDS011;22603;47.900;8.146;2023-05-20T15:39:41;9.55;;;4.00;;
36593;SDS011;22603;47.900;8.146;2023-05-20T15:42:28;7.25;;;3.40;;
36593;SDS011;22603;47.900;8.146;2023-05-20T15:45:16;8.15;;;3.83;;
36593;SDS011;22603;47.900;8.146;2023-05-20T15:48:05;9.30;;;4.18;;
36593;SDS011;22603;47.900;8.146;2023-05-20T15:50:52;8.32;;;3.92;;
36593;SDS011;22603;47.900;8.146;2023-05-20T15:53:39;8.60;;;4.03;;
36593;SDS011;22603;47.900;8.146;2023-05-20T15:56:28;9.10;;;4.18;;
36593;SDS011;22603;47.900;8.146;2023-05-20T15:59:16;9.25;;;4.00;;
36593;SDS011;22603;47.900;8.146;2023-05-20T16:02:03;7.90;;;3.90;;
36593;SDS011;22603;47.900;8.146;2023-05-20T16:04:51;10.82;;;4.18;;
36593;SDS011;22603;47.900;8.146;2023-05-20T16:07:40;8.18;;;3.92;;
36593;SDS011;22603;47.900;8.146;2023-05-20T16:10:27;8.32;;;3.75;;
36593;SDS011;22603;47.900;8.146;2023-05-20T16:13:18;8.25;;;4.20;;
36593;SDS011;22603;47.900;8.146;2023-05-20T16:16:06;10.63;;;4.25;;
36593;SDS011;22603;47.900;8.146;2023-05-20T16:18:54;8.07;;;3.88;;
36593;SDS011;22603;47.900;8.146;2023-05-20T16:21:41;9.55;;;3.97;;
36593;SDS011;22603;47.900;8.146;2023-05-20T16:24:31;8.68;;;3.92;;
36593;SDS011;22603;47.900;8.146;2023-05-20T16:27:18;8.77;;;4.00;;
36593;SDS011;22603;47.900;8.146;2023-05-20T16:30:07;10.63;;;3.80;;
36593;SDS011;22603;47.900;8.146;2023-05-20T16:32:56;10.30;;;3.67;;
36593;SDS011;22603;47.900;8.146;2023-05-20T16:35:43;10.48;;;3.97;;
36593;SDS011;22603;47.900;8.146;2023-05-20T16:38:30;9.90;;;4.43;;
36593;SDS011;22603;47.900;8.146;2023-05-20T16:41:18;9.63;;;4.38;;
36593;SDS011;22603;47.900;8.146;2023-05-20T16:44:06;7.90;;;3.95;;
36593;SDS011;22603;47.900;8.146;2023-05-20T16:46:55;9.80;;;4.03;;